createdAt,value
2023-03-15T04:13:28.518Z,3.70
2023-03-15T04:19:30.012Z,3.70
2023-03-15T04:25:40.679Z,3.70
2023-03-15T04:29:12.121Z,3.70
2023-03-15T04:33:58.656Z,3.70
2023-03-15T04:39:49.592Z,3.70
2023-03-15T04:43:00.743Z,3.70
2023-03-15T04:46:43.137Z,3.70
2023-03-15T04:50:52.345Z,3.70
2023-03-15T04:53:40.402Z,3.70
2023-03-15T04:57:19.478Z,3.70
2023-03-15T05:00:46.534Z,3.70
2023-03-15T05:04:01.354Z,3.70
2023-03-15T05:08:34.200Z,3.70
2023-03-15T05:23:09.106Z,3.80
2023-03-15T05:26:32.185Z,3.90
2023-03-15T05:29:55.503Z,3.80
2023-03-15T05:33:24.195Z,3.90
2023-03-15T05:37:31.494Z,3.90
2023-03-15T05:44:50.175Z,3.80
2023-03-15T05:52:36.556Z,3.80
2023-03-15T05:59:31.997Z,3.90
2023-03-15T06:39:58.783Z,4.00
2023-03-15T06:43:29.007Z,4.10
2023-03-15T07:02:13.930Z,4.60
2023-03-15T07:05:40.814Z,4.70
2023-03-15T07:11:34.771Z,4.80
2023-03-15T07:14:32.740Z,4.90
2023-03-15T07:17:12.003Z,4.90
2023-03-15T07:20:12.418Z,4.60
2023-03-15T07:23:00.409Z,4.60
2023-03-15T07:25:37.640Z,4.40
2023-03-15T07:28:12.105Z,4.50
2023-03-15T07:31:07.730Z,4.50
2023-03-15T07:33:54.737Z,4.50
2023-03-15T07:37:02.598Z,4.50
2023-03-15T07:39:45.622Z,4.60
2023-03-15T07:42:26.250Z,4.80
2023-03-15T07:45:09.393Z,4.80
2023-03-15T07:48:00.594Z,4.70
2023-03-15T07:50:40.857Z,4.70
2023-03-15T07:53:41.350Z,4.60
2023-03-15T07:56:48.678Z,4.40
2023-03-15T08:00:17.715Z,4.30
2023-03-15T08:02:47.057Z,4.40
2023-03-15T08:05:43.484Z,4.40
2023-03-15T08:08:18.765Z,4.50
2023-03-15T08:11:14.301Z,5.00
2023-03-15T08:14:05.170Z,5.30
2023-03-15T08:16:52.114Z,5.40
2023-03-15T08:19:32.206Z,5.60
2023-03-15T08:22:10.250Z,5.70
2023-03-15T08:27:47.976Z,5.70
2023-03-15T08:30:48.754Z,5.30
2023-03-15T08:33:22.005Z,5.50
2023-03-15T08:36:15.119Z,5.80
2023-03-15T08:38:51.629Z,5.80
2023-03-15T08:42:24.256Z,5.70
2023-03-15T08:45:24.580Z,5.70
2023-03-15T08:52:00.575Z,5.40
2023-03-15T08:55:36.422Z,5.40
2023-03-15T08:57:51.266Z,5.40
2023-03-15T09:01:00.823Z,5.60
2023-03-15T09:03:39.862Z,5.70
2023-03-15T09:06:29.991Z,6.00
2023-03-15T09:09:38.282Z,6.40
2023-03-15T09:16:07.041Z,6.50
2023-03-15T09:18:53.604Z,6.30
2023-03-15T09:21:52.955Z,6.20
2023-03-15T09:24:39.255Z,6.20
2023-03-15T09:27:39.616Z,6.30
2023-03-15T09:31:00.157Z,6.40
2023-03-15T09:33:40.291Z,6.40
2023-03-15T09:44:31.025Z,6.40
2023-03-15T09:47:42.058Z,6.30
2023-03-15T09:50:47.857Z,6.60
2023-03-15T09:53:40.054Z,6.30
2023-03-15T09:56:52.257Z,6.60
2023-03-15T10:00:49.118Z,6.60
2023-03-15T10:04:18.631Z,6.20
2023-03-15T10:27:31.782Z,6.70
2023-03-15T10:50:51.480Z,7.10
2023-03-15T10:54:13.481Z,6.90
2023-03-15T11:00:52.865Z,7.10
2023-03-15T11:08:41.003Z,7.60
2023-03-15T11:25:06.746Z,7.50
2023-03-15T11:28:25.999Z,7.30
2023-03-15T11:35:22.159Z,7.20
2023-03-15T11:38:56.165Z,7.30
2023-03-15T11:45:50.727Z,7.40
2023-03-15T11:49:18.665Z,7.70
2023-03-15T11:52:03.215Z,7.70
2023-03-15T11:55:28.411Z,7.70
2023-03-15T12:03:36.130Z,7.00
2023-03-15T12:18:46.728Z,7.10
2023-03-15T13:05:33.843Z,7.00
2023-03-15T13:12:09.811Z,6.80
2023-03-15T13:16:55.988Z,6.70
2023-03-15T13:18:39.276Z,6.70
2023-03-15T13:21:52.771Z,6.60
2023-03-15T13:29:36.097Z,6.40
2023-03-15T13:32:31.511Z,6.60
2023-03-15T13:36:19.044Z,6.60
2023-03-15T13:39:04.819Z,6.60
2023-03-15T13:45:43.121Z,6.90
2023-03-15T13:48:49.557Z,7.30
2023-03-15T13:59:08.118Z,6.90
2023-03-15T14:09:55.457Z,6.40
2023-03-15T14:14:08.942Z,6.40
2023-03-15T14:41:41.305Z,6.50
2023-03-15T15:03:04.626Z,6.10
2023-03-15T15:13:14.660Z,5.90
2023-03-15T15:25:53.791Z,6.00
2023-03-15T15:29:06.965Z,6.00
2023-03-15T15:31:59.282Z,6.00
2023-03-15T15:46:40.050Z,5.80
2023-03-15T15:50:28.128Z,5.60
2023-03-15T15:57:12.110Z,5.50
2023-03-15T16:00:24.717Z,5.60
2023-03-15T16:03:45.774Z,5.50
2023-03-15T16:06:41.581Z,5.50
2023-03-15T16:10:28.333Z,5.40
2023-03-15T16:13:11.434Z,5.30
2023-03-15T16:16:04.620Z,5.30
2023-03-15T16:18:56.410Z,5.20
2023-03-15T16:21:50.453Z,5.20
2023-03-15T16:24:57.761Z,5.10
2023-03-15T16:27:31.478Z,5.10
2023-03-15T16:30:26.654Z,5.00
2023-03-15T16:33:39.368Z,4.90
2023-03-15T16:36:35.466Z,4.90
2023-03-15T16:43:42.925Z,4.70
2023-03-15T16:47:15.719Z,4.60
2023-03-15T16:50:08.070Z,4.50
2023-03-15T16:56:25.403Z,4.20
2023-03-15T16:59:17.372Z,4.10
2023-03-15T17:01:56.438Z,4.00
2023-03-15T17:04:32.410Z,3.90
2023-03-15T17:07:37.280Z,3.80
2023-03-15T17:10:42.731Z,3.70
2023-03-15T17:13:45.259Z,3.60
2023-03-15T17:20:12.893Z,3.40
2023-03-15T17:23:20.719Z,3.30
2023-03-15T17:29:19.039Z,2.90
2023-03-15T17:32:54.742Z,2.70
2023-03-15T17:35:35.134Z,2.60
2023-03-15T17:38:26.218Z,2.50
2023-03-15T17:41:09.254Z,2.40
2023-03-15T18:35:04.138Z,0.70
2023-03-15T18:43:38.619Z,0.50
2023-03-15T18:55:27.701Z,0.00
2023-03-15T18:58:52.630Z,0.00
2023-03-15T19:10:25.641Z,-0.10
2023-03-15T19:13:15.216Z,-0.20
2023-03-15T19:16:37.171Z,-0.20
2023-03-15T19:19:23.639Z,-0.20
2023-03-15T19:22:16.011Z,-0.30
2023-03-15T19:35:46.614Z,-0.30
2023-03-15T19:47:01.203Z,-0.50
2023-03-15T20:02:12.745Z,-0.70
2023-03-15T20:05:01.482Z,-0.70
2023-03-15T20:07:40.360Z,-0.70
2023-03-15T20:10:38.116Z,-0.70
2023-03-15T20:17:21.609Z,-0.80
2023-03-15T20:20:02.093Z,-0.70
2023-03-15T20:22:34.306Z,-0.80
2023-03-15T20:25:18.594Z,-0.70
2023-03-15T20:31:22.804Z,-0.80
2023-03-15T20:34:35.221Z,-0.90
2023-03-15T20:37:14.140Z,-0.80
2023-03-15T20:39:50.299Z,-0.60
2023-03-15T20:42:20.004Z,-0.70
2023-03-15T20:44:52.775Z,-0.50
2023-03-15T20:47:24.918Z,-0.60
2023-03-15T20:49:59.583Z,-0.70
2023-03-15T20:52:29.735Z,-0.50
2023-03-15T20:54:58.311Z,-0.50
2023-03-15T20:57:37.157Z,-0.30
2023-03-15T21:00:13.550Z,-0.60
2023-03-15T21:02:46.741Z,-0.50
2023-03-15T21:05:27.508Z,-0.50
2023-03-15T21:07:58.061Z,-0.60
2023-03-15T21:10:34.186Z,-0.60
2023-03-15T21:13:10.075Z,-0.60
2023-03-15T21:15:48.255Z,-0.60
2023-03-15T21:18:25.956Z,-0.60
2023-03-15T21:21:13.060Z,-0.70
2023-03-15T21:23:52.766Z,-0.60
2023-03-15T21:26:22.546Z,-0.60
2023-03-15T21:29:09.556Z,-0.60
2023-03-15T21:31:38.450Z,-0.60
2023-03-15T21:34:13.984Z,-0.60
2023-03-15T21:37:09.736Z,-0.60
2023-03-15T21:39:43.645Z,-0.40
2023-03-15T21:42:14.125Z,-0.60
2023-03-15T21:44:49.820Z,-0.60
2023-03-15T21:47:24.740Z,-0.30
2023-03-15T21:49:57.017Z,-0.40
2023-03-15T21:52:27.856Z,-0.50
2023-03-15T21:55:04.251Z,-0.40
2023-03-15T21:57:34.165Z,-0.40
2023-03-15T22:00:16.368Z,-0.30
2023-03-15T22:02:49.384Z,-0.30
2023-03-15T22:05:18.363Z,-0.30
2023-03-15T22:07:57.705Z,-0.30
2023-03-15T22:10:28.642Z,-0.20
2023-03-15T22:12:59.178Z,-0.10
2023-03-15T22:15:28.098Z,-0.10
2023-03-15T22:17:56.674Z,-0.20
2023-03-15T22:20:25.384Z,-0.20
2023-03-15T22:23:13.727Z,-0.10
2023-03-15T22:26:00.287Z,-0.10
2023-03-15T22:28:37.639Z,-0.20
2023-03-15T22:31:13.053Z,-0.20
2023-03-15T22:33:44.045Z,-0.20
2023-03-15T22:36:20.169Z,-0.30
2023-03-15T22:38:58.980Z,-0.20
2023-03-15T22:41:30.699Z,-0.20
2023-03-15T22:44:05.167Z,-0.10
2023-03-15T22:46:37.834Z,0.00
2023-03-15T22:49:10.717Z,-0.30
2023-03-15T22:51:41.908Z,-0.30
2023-03-15T22:54:13.208Z,-0.30
2023-03-15T22:56:44.377Z,-0.20
2023-03-15T22:59:17.137Z,-0.30
2023-03-15T23:01:45.692Z,-0.30
2023-03-15T23:04:17.129Z,-0.30
